createdAt,value
2023-04-29T00:08:29.751Z,1.88
2023-04-29T00:30:46.065Z,2.72
2023-04-29T00:41:02.357Z,2.03
2023-04-29T00:51:22.276Z,1.92
2023-04-29T01:01:37.656Z,2.75
2023-04-29T01:12:03.076Z,2.00
2023-04-29T01:22:19.989Z,1.30
2023-04-29T01:33:07.262Z,1.58
2023-04-29T01:43:20.770Z,2.78
2023-04-29T01:53:37.069Z,2.47
2023-04-29T02:03:47.275Z,2.30
2023-04-29T02:14:14.147Z,1.55
2023-04-29T02:24:23.646Z,2.22
2023-04-29T02:34:33.071Z,4.47
2023-04-29T02:44:41.092Z,1.48
2023-04-29T02:54:50.108Z,2.15
2023-04-29T03:04:57.931Z,3.38
2023-04-29T03:15:07.471Z,7.05
2023-04-29T03:25:15.111Z,2.75
2023-04-29T03:35:24.289Z,3.00
2023-04-29T03:45:57.298Z,5.75
2023-04-29T03:56:06.219Z,4.28
2023-04-29T04:06:13.326Z,4.43
2023-04-29T04:16:22.247Z,3.58
2023-04-29T04:26:29.997Z,3.30
2023-04-29T04:36:57.124Z,1.77
2023-04-29T04:47:04.511Z,4.28
2023-04-29T04:57:35.928Z,3.13
2023-04-29T05:07:43.354Z,3.85
2023-04-29T05:18:19.359Z,3.55
2023-04-29T05:28:33.304Z,3.00
2023-04-29T05:38:42.832Z,4.82
2023-04-29T05:48:49.994Z,5.47
2023-04-29T05:58:59.426Z,6.25
2023-04-29T06:09:13.358Z,3.58
2023-04-29T06:19:29.094Z,4.15
2023-04-29T06:29:37.293Z,4.35
2023-04-29T06:39:47.243Z,3.90
2023-04-29T06:49:59.942Z,4.20
2023-04-29T07:00:10.807Z,4.55
2023-04-29T07:10:18.081Z,3.90
2023-04-29T07:20:28.713Z,4.90
2023-04-29T07:30:37.320Z,3.72
2023-04-29T07:40:47.962Z,5.05
2023-04-29T07:50:55.589Z,5.18
2023-04-29T08:01:09.657Z,4.28
2023-04-29T08:11:20.206Z,3.42
2023-04-29T08:21:29.571Z,4.05
2023-04-29T08:31:37.125Z,5.30
2023-04-29T09:06:37.719Z,3.20
2023-04-29T09:18:03.535Z,4.50
2023-04-29T09:41:02.422Z,4.18
2023-04-29T10:02:26.499Z,4.45
2023-04-29T10:13:50.428Z,5.47
2023-04-29T10:24:35.271Z,2.63
2023-04-29T10:35:04.465Z,3.33
2023-04-29T10:46:37.714Z,3.08
2023-04-29T11:21:01.708Z,4.60
2023-04-29T11:31:36.794Z,4.72
2023-04-29T11:53:39.425Z,5.38
2023-04-29T12:05:04.542Z,4.35
2023-04-29T12:16:00.322Z,4.68
2023-04-29T12:28:23.025Z,4.72
2023-04-29T12:38:45.831Z,5.65
2023-04-29T13:01:28.929Z,5.93
2023-04-29T13:11:43.803Z,5.32
2023-04-29T13:22:21.777Z,5.47
2023-04-29T13:33:16.423Z,3.22
2023-04-29T13:44:23.610Z,4.75
2023-04-29T13:54:58.506Z,4.78
2023-04-29T14:18:30.191Z,3.97
2023-04-29T14:28:38.819Z,4.70
2023-04-29T14:38:51.132Z,7.18
2023-04-29T14:49:01.859Z,6.07
2023-04-29T14:59:34.782Z,5.97
2023-04-29T15:09:42.253Z,7.97
2023-04-29T15:19:53.104Z,6.95
2023-04-29T15:30:01.089Z,7.95
2023-04-29T15:40:11.119Z,7.57
2023-04-29T15:50:18.110Z,5.10
2023-04-29T16:00:56.282Z,6.35
2023-04-29T16:11:03.354Z,6.03
2023-04-29T16:21:14.584Z,5.85
2023-04-29T16:31:50.554Z,7.50
2023-04-29T17:06:00.942Z,7.80
2023-04-29T17:50:46.694Z,5.20
2023-04-29T18:01:23.654Z,6.13
2023-04-29T18:11:37.284Z,8.80
2023-04-29T18:21:44.799Z,6.82
2023-04-29T18:31:55.620Z,6.18
2023-04-29T18:42:03.910Z,6.32
2023-04-29T18:52:13.198Z,5.68
2023-04-29T19:02:21.005Z,7.60
2023-04-29T19:12:29.746Z,5.10
2023-04-29T19:22:36.870Z,5.38
2023-04-29T19:32:45.753Z,6.40
2023-04-29T19:42:52.961Z,6.78
2023-04-29T19:53:03.068Z,5.97
2023-04-29T20:03:10.407Z,6.22
2023-04-29T20:13:19.316Z,5.53
2023-04-29T20:23:26.632Z,6.88
2023-04-29T20:33:35.810Z,11.93
2023-04-29T20:43:43.079Z,4.60
2023-04-29T20:53:52.188Z,4.97
2023-04-29T21:03:59.002Z,4.70
2023-04-29T21:14:07.837Z,5.43
2023-04-29T21:24:14.945Z,4.25
2023-04-29T21:34:23.649Z,3.30
2023-04-29T21:44:31.059Z,2.97
2023-04-29T21:54:40.013Z,3.22
2023-04-29T22:04:47.352Z,4.68
2023-04-29T22:14:56.320Z,3.72
2023-04-29T22:25:04.438Z,3.05
2023-04-29T22:35:13.931Z,3.58
2023-04-29T22:45:21.425Z,2.70
2023-04-29T22:55:30.987Z,2.20
2023-04-29T23:05:37.910Z,2.63
2023-04-29T23:15:47.097Z,2.20
2023-04-29T23:25:54.274Z,2.67
2023-04-29T23:36:03.197Z,2.42
2023-04-29T23:46:10.371Z,2.83
2023-04-29T23:56:19.910Z,1.95
